Time;durP1;ratioP1;P1;durP2;ratioP2;P2;SDS_P1;SDS_P2;PMS_P1;PMS_P2;Temp;Humidity;BMP_temperature;BMP_pressure;BME280_temperature;BME280_humidity;BME280_pressure;Samples;Min_cycle;Max_cycle;Signal;HPM_P1;HPM_P2
2022/06/15 00:00:24;;;;;;;0.95;0.95;;;19.40;99.90;;;;;;5123436;28;20201;-66
2022/06/15 00:02:52;;;;;;;0.82;0.82;;;19.30;99.90;;;;;;5112848;28;20279;-68
2022/06/15 00:05:21;;;;;;;0.80;0.80;;;19.40;99.90;;;;;;5103777;28;20198;-67
2022/06/15 00:07:48;;;;;;;0.80;0.80;;;19.40;99.90;;;;;;5102197;28;20789;-67
2022/06/15 00:10:15;;;;;;;0.98;0.98;;;19.50;99.90;;;;;;5103125;28;20292;-66
2022/06/15 00:12:42;;;;;;;0.80;0.80;;;19.40;99.90;;;;;;5102038;28;20294;-67
2022/06/15 00:15:10;;;;;;;1.08;1.08;;;19.40;99.90;;;;;;5088998;28;20258;-66
2022/06/15 00:17:36;;;;;;;0.80;0.80;;;19.30;99.90;;;;;;5108656;28;20206;-68
2022/06/15 00:20:04;;;;;;;0.90;0.90;;;19.20;99.90;;;;;;5105866;28;20811;-68
2022/06/15 00:22:32;;;;;;;1.00;1.00;;;19.20;99.90;;;;;;5098132;28;20642;-68
2022/06/15 00:24:59;;;;;;;0.90;0.90;;;19.20;99.90;;;;;;5105537;28;20285;-68
2022/06/15 00:27:26;;;;;;;0.90;0.90;;;19.20;99.90;;;;;;5107887;28;20621;-67
2022/06/15 00:29:54;;;;;;;0.83;0.83;;;19.10;99.90;;;;;;5097228;28;20226;-68
2022/06/15 00:32:21;;;;;;;1.05;0.75;;;19.10;99.90;;;;;;5097464;28;20695;-68
2022/06/15 00:37:15;;;;;;;1.00;1.00;;;19.10;99.90;;;;;;5067026;28;20207;-62
2022/06/15 00:39:44;;;;;;;0.90;0.90;;;19.00;99.90;;;;;;5069518;28;20680;-62
2022/06/15 00:42:13;;;;;;;0.80;0.80;;;19.00;99.90;;;;;;5068371;28;20294;-64
2022/06/15 00:44:42;;;;;;;0.82;0.82;;;19.00;99.90;;;;;;5069178;28;20237;-62
2022/06/15 00:47:16;;;;;;;0.98;0.98;;;18.90;99.90;;;;;;5057412;28;20744;-62
2022/06/15 00:49:47;;;;;;;0.88;0.88;;;18.80;99.90;;;;;;5059907;28;20274;-62
2022/06/15 00:52:17;;;;;;;1.10;1.00;;;18.70;99.90;;;;;;5063080;28;20210;-64
2022/06/15 00:54:48;;;;;;;0.82;0.82;;;18.70;99.90;;;;;;5072109;28;20741;-62
2022/06/15 00:57:15;;;;;;;0.80;0.80;;;18.70;99.90;;;;;;5058998;28;20228;-63
2022/06/15 00:59:49;;;;;;;0.80;0.80;;;18.70;99.90;;;;;;5059887;28;20295;-64
2022/06/15 01:02:16;;;;;;;1.13;0.85;;;18.60;99.90;;;;;;5058687;28;20235;-62
2022/06/15 01:04:47;;;;;;;0.80;0.80;;;18.60;99.90;;;;;;5058859;28;20228;-62
2022/06/15 01:07:35;;;;;;;0.90;0.90;;;18.60;99.90;;;;;;5058856;28;20208;-64
2022/06/15 01:10:13;;;;;;;0.90;0.90;;;18.60;99.90;;;;;;5066756;28;20322;-63
2022/06/15 01:12:49;;;;;;;0.70;0.70;;;18.60;99.90;;;;;;5060507;28;20200;-62
2022/06/15 01:15:30;;;;;;;1.00;1.00;;;18.60;99.90;;;;;;5064999;28;20219;-63
2022/06/15 01:18:11;;;;;;;0.90;0.90;;;18.50;99.90;;;;;;5059066;28;20310;-63
2022/06/15 01:20:50;;;;;;;0.80;0.80;;;18.40;99.90;;;;;;5063163;28;20246;-62
2022/06/15 01:23:51;;;;;;;1.05;1.05;;;18.40;99.90;;;;;;5058023;28;20672;-62
2022/06/15 01:26:39;;;;;;;1.10;1.10;;;18.40;99.90;;;;;;5068489;28;20206;-63
2022/06/15 01:29:18;;;;;;;0.90;0.90;;;18.40;99.90;;;;;;5074258;28;20206;-62
2022/06/15 01:31:56;;;;;;;0.80;0.80;;;18.40;99.90;;;;;;5074072;28;20718;-62
2022/06/15 01:34:28;;;;;;;1.08;0.80;;;18.40;99.90;;;;;;5074274;28;20217;-62
2022/06/15 01:37:03;;;;;;;0.90;0.90;;;18.40;99.90;;;;;;5073092;28;20301;-62
2022/06/15 01:39:36;;;;;;;0.70;0.70;;;18.40;99.90;;;;;;5074061;28;20754;-62
2022/06/15 01:42:10;;;;;;;0.93;0.90;;;18.40;99.90;;;;;;5073803;28;20234;-62
2022/06/15 01:44:40;;;;;;;0.70;0.70;;;18.40;99.90;;;;;;5074087;28;20581;-62
2022/06/15 01:47:12;;;;;;;0.90;0.90;;;18.40;99.90;;;;;;5073435;28;20199;-62
2022/06/15 01:49:43;;;;;;;0.80;0.80;;;18.30;99.90;;;;;;5076544;28;20314;-62
2022/06/15 01:52:14;;;;;;;0.95;0.95;;;18.30;99.90;;;;;;5090240;28;20203;-64
2022/06/15 01:54:43;;;;;;;0.68;0.68;;;18.20;99.90;;;;;;5092872;28;20724;-62
2022/06/15 01:57:11;;;;;;;0.68;0.68;;;18.20;99.90;;;;;;5086698;28;20578;-63
2022/06/15 01:59:42;;;;;;;0.73;0.73;;;18.20;99.90;;;;;;5071165;28;20294;-62
2022/06/15 02:02:17;;;;;;;1.13;0.90;;;18.20;99.90;;;;;;5075282;28;20238;-62
2022/06/15 02:04:55;;;;;;;0.80;0.80;;;18.20;99.90;;;;;;5074068;28;20671;-63
2022/06/15 02:07:31;;;;;;;0.90;0.90;;;18.20;99.90;;;;;;5074467;28;20622;-64
2022/06/15 02:10:03;;;;;;;0.93;0.80;;;18.20;99.90;;;;;;5073298;28;20301;-63
2022/06/15 02:12:34;;;;;;;0.98;0.98;;;18.20;99.90;;;;;;5078418;28;20275;-62
2022/06/15 02:15:04;;;;;;;0.73;0.73;;;18.10;99.90;;;;;;5079325;28;20223;-64
2022/06/15 02:17:35;;;;;;;0.80;0.80;;;18.20;99.90;;;;;;5080300;28;20206;-62
2022/06/15 02:20:08;;;;;;;1.00;0.75;;;18.10;99.90;;;;;;5083371;28;20200;-62
2022/06/15 02:22:38;;;;;;;1.10;1.10;;;18.00;99.90;;;;;;5075514;28;20199;-62
2022/06/15 02:25:08;;;;;;;0.70;0.70;;;17.90;99.90;;;;;;5073764;28;20242;-64
2022/06/15 02:27:37;;;;;;;0.90;0.90;;;18.00;99.90;;;;;;5073762;28;20686;-62
2022/06/15 02:30:10;;;;;;;1.00;1.00;;;18.00;99.90;;;;;;5073485;28;20204;-62
2022/06/15 02:32:41;;;;;;;0.80;0.80;;;18.00;99.90;;;;;;5073975;28;20213;-62
2022/06/15 02:35:09;;;;;;;0.80;0.80;;;18.00;99.90;;;;;;5073138;28;20211;-62
2022/06/15 02:37:36;;;;;;;0.90;0.90;;;18.00;99.90;;;;;;5073568;28;20315;-62
2022/06/15 02:40:03;;;;;;;0.90;0.90;;;17.90;99.90;;;;;;5073652;28;20199;-62
2022/06/15 02:42:32;;;;;;;0.90;0.90;;;17.70;99.90;;;;;;5073209;28;20199;-62
2022/06/15 02:45:02;;;;;;;0.70;0.70;;;17.60;99.90;;;;;;5064560;28;20338;-63
2022/06/15 02:47:33;;;;;;;0.90;0.90;;;17.50;99.90;;;;;;5062229;28;20202;-63
2022/06/15 02:50:03;;;;;;;0.90;0.90;;;17.50;99.90;;;;;;5073312;28;20210;-63
2022/06/15 02:52:35;;;;;;;1.00;1.00;;;17.40;99.90;;;;;;5064995;28;20199;-63
2022/06/15 02:55:04;;;;;;;0.80;0.80;;;17.50;99.90;;;;;;5057207;28;20259;-62
2022/06/15 02:57:31;;;;;;;1.00;1.00;;;17.50;99.90;;;;;;5064489;28;20312;-63
2022/06/15 02:59:57;;;;;;;0.88;0.88;;;17.50;99.90;;;;;;5056845;28;20287;-62
2022/06/15 03:02:24;;;;;;;0.90;0.90;;;17.50;99.90;;;;;;5064244;28;20205;-62
2022/06/15 03:04:51;;;;;;;0.93;0.93;;;17.50;99.90;;;;;;5062264;28;20230;-62
2022/06/15 03:07:22;;;;;;;0.80;0.80;;;17.50;99.90;;;;;;5060076;28;20199;-63
2022/06/15 03:09:49;;;;;;;0.90;0.90;;;17.40;99.90;;;;;;5064611;28;20211;-62
2022/06/15 03:12:16;;;;;;;0.80;0.80;;;17.40;99.90;;;;;;5067774;28;20236;-63
2022/06/15 03:14:43;;;;;;;1.13;1.05;;;17.30;99.90;;;;;;5060949;28;20709;-64
2022/06/15 03:17:10;;;;;;;0.95;0.95;;;17.30;99.90;;;;;;5068348;28;20295;-62
2022/06/15 03:19:37;;;;;;;1.02;1.02;;;17.20;99.90;;;;;;5058230;28;20685;-63
2022/06/15 03:22:04;;;;;;;0.82;0.82;;;17.20;99.90;;;;;;5061798;28;20208;-62
2022/06/15 03:24:33;;;;;;;1.10;1.10;;;17.10;99.90;;;;;;5067150;28;20837;-62
2022/06/15 03:27:00;;;;;;;0.80;0.80;;;17.00;99.90;;;;;;5061513;28;20207;-62
2022/06/15 03:29:26;;;;;;;0.73;0.73;;;16.90;99.90;;;;;;5066238;28;20200;-64
2022/06/15 03:31:53;;;;;;;1.02;1.02;;;16.80;99.90;;;;;;5063323;28;20302;-62
2022/06/15 03:34:20;;;;;;;0.90;0.90;;;16.80;99.90;;;;;;5071694;28;20246;-61
2022/06/15 03:36:47;;;;;;;0.80;0.80;;;17.10;99.90;;;;;;5070950;28;20297;-63
2022/06/15 03:39:15;;;;;;;0.90;0.90;;;17.70;99.90;;;;;;5071726;28;20685;-63
2022/06/15 03:41:44;;;;;;;0.80;0.80;;;18.10;99.90;;;;;;5071721;28;20218;-61
2022/06/15 03:44:11;;;;;;;0.90;0.90;;;18.40;99.90;;;;;;5071750;28;20310;-63
2022/06/15 03:46:37;;;;;;;0.98;0.90;;;18.70;99.90;;;;;;5071297;28;20211;-62
2022/06/15 03:49:05;;;;;;;0.90;0.90;;;18.80;99.90;;;;;;5070834;28;20214;-63
2022/06/15 03:51:32;;;;;;;1.00;1.00;;;18.80;99.90;;;;;;5071337;28;20222;-63
2022/06/15 03:53:59;;;;;;;1.00;1.00;;;18.90;99.90;;;;;;5071245;28;20229;-61
2022/06/15 03:56:41;;;;;;;0.70;0.70;;;19.00;99.90;;;;;;5071151;28;20204;-62
2022/06/15 03:59:10;;;;;;;0.90;0.90;;;19.00;99.90;;;;;;5071474;28;20294;-62
2022/06/15 04:01:37;;;;;;;0.90;0.90;;;19.00;99.90;;;;;;5071371;28;20644;-62
2022/06/15 04:04:04;;;;;;;0.88;0.88;;;19.20;99.90;;;;;;5071051;28;20309;-61
2022/06/15 04:06:31;;;;;;;0.80;0.80;;;19.20;99.90;;;;;;5070775;28;20631;-64
2022/06/15 04:08:57;;;;;;;0.98;0.90;;;19.20;99.90;;;;;;5071316;28;20802;-62
2022/06/15 04:14:10;;;;;;;0.90;0.90;;;19.20;99.90;;;;;;5067272;28;20229;-63
2022/06/15 04:16:37;;;;;;;0.93;0.93;;;19.10;99.90;;;;;;5070599;28;20703;-61
2022/06/15 04:19:07;;;;;;;0.98;0.90;;;19.00;99.90;;;;;;5071313;28;20238;-62
2022/06/15 04:21:34;;;;;;;0.93;0.93;;;18.80;99.90;;;;;;5077150;28;20257;-63
2022/06/15 04:24:01;;;;;;;1.23;1.10;;;18.60;99.90;;;;;;5077711;28;20242;-62
2022/06/15 04:26:28;;;;;;;0.98;0.98;;;18.50;99.90;;;;;;5078876;28;20299;-62
2022/06/15 04:28:55;;;;;;;0.80;0.80;;;18.70;99.90;;;;;;5071945;28;20214;-62
2022/06/15 04:31:23;;;;;;;1.25;1.10;;;18.90;99.90;;;;;;5071739;28;20199;-63
2022/06/15 04:33:50;;;;;;;1.00;1.00;;;19.00;99.90;;;;;;5070580;28;20318;-63
2022/06/15 04:36:17;;;;;;;0.90;0.90;;;19.00;99.90;;;;;;5070333;28;20592;-63
2022/06/15 04:38:44;;;;;;;0.88;0.88;;;19.10;99.90;;;;;;5070936;28;20217;-63
2022/06/15 04:41:11;;;;;;;1.00;1.00;;;19.10;99.90;;;;;;5070730;28;20875;-64
2022/06/15 04:43:38;;;;;;;0.90;0.90;;;19.20;99.90;;;;;;5070031;28;20211;-64
2022/06/15 04:46:05;;;;;;;0.88;0.88;;;19.20;99.90;;;;;;5065454;28;20651;-63
2022/06/15 04:48:33;;;;;;;1.35;0.93;;;19.20;99.90;;;;;;5069453;28;20203;-64
2022/06/15 04:51:10;;;;;;;0.90;0.90;;;19.00;99.90;;;;;;5069947;28;20205;-65
2022/06/15 04:53:37;;;;;;;1.17;1.13;;;18.80;99.90;;;;;;5070194;28;20231;-62
2022/06/15 04:56:05;;;;;;;1.38;0.90;;;18.60;99.90;;;;;;5069242;28;20294;-62
2022/06/15 04:58:32;;;;;;;0.90;0.90;;;18.40;99.90;;;;;;5071827;28;20199;-62
2022/06/15 05:01:00;;;;;;;1.00;1.00;;;18.30;99.90;;;;;;5072890;28;20660;-61
2022/06/15 05:03:27;;;;;;;0.98;0.98;;;18.30;99.90;;;;;;5072040;28;20250;-63
2022/06/15 05:05:57;;;;;;;1.00;1.00;;;18.30;99.90;;;;;;5071493;28;20235;-62
2022/06/15 05:08:24;;;;;;;1.00;1.00;;;18.40;99.90;;;;;;5070899;28;20298;-62
2022/06/15 05:10:51;;;;;;;0.98;0.98;;;18.60;99.90;;;;;;5070541;28;20271;-62
2022/06/15 05:13:18;;;;;;;1.00;1.00;;;18.60;99.90;;;;;;5070185;28;20205;-63
2022/06/15 05:15:45;;;;;;;1.10;1.10;;;18.70;99.90;;;;;;5069159;28;20235;-63
2022/06/15 05:18:12;;;;;;;1.13;1.02;;;18.70;99.90;;;;;;5070318;28;20349;-62
2022/06/15 05:20:40;;;;;;;0.88;0.88;;;18.80;99.90;;;;;;5067649;28;20210;-62
2022/06/15 05:23:13;;;;;;;1.00;1.00;;;18.90;99.90;;;;;;5070386;28;20268;-62
2022/06/15 05:25:39;;;;;;;1.20;1.20;;;19.10;99.90;;;;;;5070553;28;20231;-62
2022/06/15 05:28:08;;;;;;;1.08;1.08;;;19.10;99.90;;;;;;5070587;28;21132;-63
2022/06/15 05:30:35;;;;;;;1.25;1.15;;;19.20;99.90;;;;;;5063625;28;20204;-62
2022/06/15 05:33:02;;;;;;;1.42;1.05;;;19.20;99.90;;;;;;5068635;28;20266;-62
2022/06/15 05:35:29;;;;;;;0.98;0.98;;;19.20;99.90;;;;;;5063370;28;20235;-63
2022/06/15 05:37:56;;;;;;;1.48;1.10;;;19.60;99.90;;;;;;5059725;28;20262;-61
2022/06/15 05:40:24;;;;;;;1.20;1.20;;;20.00;99.90;;;;;;5058048;28;20250;-62
2022/06/15 05:42:51;;;;;;;1.40;1.00;;;20.00;99.90;;;;;;5059056;28;20246;-63
2022/06/15 05:45:18;;;;;;;1.45;1.35;;;20.20;99.90;;;;;;5062959;28;20230;-63
2022/06/15 05:47:45;;;;;;;1.00;1.00;;;20.20;99.90;;;;;;5071160;28;20808;-62
2022/06/15 05:50:14;;;;;;;1.00;1.00;;;20.30;99.90;;;;;;5070931;28;20210;-62
2022/06/15 05:52:41;;;;;;;1.10;1.10;;;20.50;99.90;;;;;;5071014;28;20606;-63
2022/06/15 05:55:09;;;;;;;1.05;1.05;;;20.60;99.90;;;;;;5071623;28;20587;-62
2022/06/15 05:57:37;;;;;;;1.25;1.17;;;20.80;99.90;;;;;;5074795;28;20295;-63
2022/06/15 06:00:05;;;;;;;1.40;1.40;;;20.90;99.90;;;;;;5073785;28;20235;-63
2022/06/15 06:02:33;;;;;;;1.00;1.00;;;21.10;99.90;;;;;;5074361;28;20266;-61
2022/06/15 06:05:07;;;;;;;1.20;1.20;;;21.20;99.90;;;;;;5092529;28;20258;-62
2022/06/15 06:07:34;;;;;;;1.23;1.00;;;21.40;99.90;;;;;;5090390;28;20199;-62
2022/06/15 06:10:01;;;;;;;1.10;1.00;;;21.50;99.90;;;;;;5087806;28;20214;-63
2022/06/15 06:12:27;;;;;;;0.98;0.98;;;21.70;99.90;;;;;;5081892;28;20353;-63
2022/06/15 06:14:56;;;;;;;1.05;1.05;;;21.80;99.90;;;;;;5073963;28;20250;-63
2022/06/15 06:17:23;;;;;;;1.05;1.05;;;22.10;99.90;;;;;;5075655;28;20218;-63
2022/06/15 06:19:51;;;;;;;1.20;1.20;;;22.10;99.90;;;;;;5073837;28;20321;-62
2022/06/15 06:22:18;;;;;;;1.20;1.20;;;22.10;99.90;;;;;;5073781;28;20211;-63
2022/06/15 06:24:45;;;;;;;1.08;1.08;;;22.00;99.90;;;;;;5068231;28;20309;-62
2022/06/15 06:27:14;;;;;;;1.20;1.20;;;22.10;99.90;;;;;;5073132;28;20218;-63
2022/06/15 06:29:42;;;;;;;1.10;1.10;;;22.20;99.90;;;;;;5078610;28;20279;-62
2022/06/15 06:32:14;;;;;;;1.30;1.20;;;22.30;99.90;;;;;;5093309;28;20258;-63
2022/06/15 06:34:41;;;;;;;1.30;1.20;;;22.50;99.90;;;;;;5079246;28;20247;-62
2022/06/15 06:37:08;;;;;;;1.30;1.20;;;22.30;99.90;;;;;;5086774;28;20301;-64
2022/06/15 06:39:36;;;;;;;1.20;1.20;;;22.30;99.90;;;;;;5074729;28;20207;-63
2022/06/15 06:42:05;;;;;;;1.10;1.10;;;22.30;99.90;;;;;;5074241;28;20210;-63
2022/06/15 06:44:32;;;;;;;1.80;1.23;;;22.40;99.90;;;;;;5073598;28;20288;-64
2022/06/15 06:46:58;;;;;;;1.27;1.27;;;22.50;99.90;;;;;;5073016;28;20231;-63
2022/06/15 06:49:27;;;;;;;1.40;1.30;;;22.50;99.90;;;;;;5072743;28;20234;-62
2022/06/15 06:51:54;;;;;;;1.35;1.25;;;22.50;99.90;;;;;;5071264;28;20208;-63
2022/06/15 06:54:22;;;;;;;1.20;1.20;;;22.60;99.90;;;;;;5073625;28;20661;-63
2022/06/15 06:56:50;;;;;;;1.20;1.20;;;22.60;99.90;;;;;;5073047;28;20287;-62
2022/06/15 06:59:18;;;;;;;1.25;1.25;;;22.70;99.90;;;;;;5066346;28;20294;-63
2022/06/15 07:01:47;;;;;;;1.40;1.30;;;22.70;99.90;;;;;;5072945;28;20199;-62
2022/06/15 07:04:15;;;;;;;1.40;1.30;;;22.70;99.90;;;;;;5066079;28;20247;-65
2022/06/15 07:06:44;;;;;;;1.20;1.20;;;22.80;99.90;;;;;;5071583;28;20227;-65
2022/06/15 07:09:11;;;;;;;1.27;1.27;;;22.80;99.90;;;;;;5071288;28;20730;-64
2022/06/15 07:11:41;;;;;;;1.10;1.10;;;22.90;99.90;;;;;;5067407;28;20203;-63
2022/06/15 07:14:08;;;;;;;1.17;1.17;;;22.90;99.90;;;;;;5071728;28;20245;-63
2022/06/15 07:16:37;;;;;;;1.27;1.17;;;22.90;99.90;;;;;;5071188;28;20203;-64
2022/06/15 07:19:03;;;;;;;1.33;1.23;;;23.00;99.90;;;;;;5071788;28;20761;-64
2022/06/15 07:21:31;;;;;;;1.35;1.27;;;23.10;99.90;;;;;;5072984;28;20306;-63
2022/06/15 07:23:59;;;;;;;1.17;1.17;;;23.20;99.90;;;;;;5072964;28;20310;-64
2022/06/15 07:26:30;;;;;;;1.20;1.20;;;23.30;99.90;;;;;;5072473;28;20305;-64
2022/06/15 07:28:57;;;;;;;1.60;1.33;;;23.50;99.90;;;;;;5073015;28;20206;-64
2022/06/15 07:31:27;;;;;;;1.20;1.20;;;23.60;99.90;;;;;;5072933;28;20207;-62
2022/06/15 07:33:54;;;;;;;1.33;1.23;;;23.40;99.90;;;;;;5073321;28;20231;-63
2022/06/15 07:36:23;;;;;;;1.25;1.23;;;23.50;99.90;;;;;;5072047;28;20309;-64
2022/06/15 07:38:50;;;;;;;1.35;1.30;;;23.60;99.90;;;;;;5072949;28;20249;-62
2022/06/15 07:41:18;;;;;;;1.10;1.10;;;23.70;99.90;;;;;;5072862;28;20286;-63
2022/06/15 07:43:46;;;;;;;1.35;1.30;;;23.50;99.90;;;;;;5072561;28;20210;-62
2022/06/15 07:46:13;;;;;;;1.35;1.25;;;23.40;99.90;;;;;;5063952;28;20221;-62
2022/06/15 07:51:32;;;;;;;1.33;1.23;;;23.60;99.90;;;;;;5066616;28;20256;-64
2022/06/15 07:54:00;;;;;;;1.10;1.10;;;23.80;99.90;;;;;;5072602;28;20247;-63
2022/06/15 07:56:28;;;;;;;1.02;1.02;;;23.90;99.90;;;;;;5071978;28;20192;-65
2022/06/15 07:58:55;;;;;;;1.23;1.23;;;23.90;99.90;;;;;;5072275;28;20195;-63
2022/06/15 08:01:23;;;;;;;1.33;1.23;;;24.00;99.90;;;;;;5072403;28;20199;-63
2022/06/15 08:03:50;;;;;;;0.90;0.90;;;24.20;99.90;;;;;;5072018;28;20396;-63
2022/06/15 08:06:17;;;;;;;1.10;1.10;;;24.20;99.90;;;;;;5072087;28;20708;-62
2022/06/15 08:08:45;;;;;;;1.40;1.30;;;24.40;99.90;;;;;;5072433;28;20295;-63
2022/06/15 08:11:12;;;;;;;1.10;1.10;;;24.40;99.90;;;;;;5064175;28;20199;-64
2022/06/15 08:13:41;;;;;;;1.20;1.20;;;24.50;99.90;;;;;;5072292;28;20295;-63
2022/06/15 08:16:08;;;;;;;1.20;1.20;;;24.60;99.90;;;;;;5071809;28;20287;-64
2022/06/15 08:18:40;;;;;;;1.08;1.08;;;24.70;99.90;;;;;;5071466;28;20199;-63
2022/06/15 08:21:10;;;;;;;1.23;1.20;;;24.80;99.90;;;;;;5071118;28;20221;-63
2022/06/15 08:23:40;;;;;;;1.15;1.15;;;24.80;99.90;;;;;;5072116;28;20203;-65
2022/06/15 08:26:12;;;;;;;0.88;0.88;;;24.90;99.90;;;;;;5071600;28;20768;-64
2022/06/15 08:28:46;;;;;;;1.10;1.10;;;25.10;99.90;;;;;;5072114;28;20290;-65
2022/06/15 08:31:13;;;;;;;1.30;1.20;;;25.20;99.90;;;;;;5072300;28;20294;-65
2022/06/15 08:33:40;;;;;;;1.10;1.10;;;25.40;99.90;;;;;;5072001;28;20229;-63
2022/06/15 08:36:09;;;;;;;1.00;1.00;;;25.50;99.90;;;;;;5073690;28;20245;-64
2022/06/15 08:38:36;;;;;;;1.08;1.08;;;25.60;99.90;;;;;;5085355;28;20231;-63
2022/06/15 08:41:06;;;;;;;1.00;1.00;;;25.70;99.90;;;;;;5074689;28;20261;-64
2022/06/15 08:43:50;;;;;;;1.10;1.10;;;25.70;99.90;;;;;;5074054;28;20756;-63
2022/06/15 08:46:27;;;;;;;1.13;1.13;;;25.60;99.90;;;;;;5063819;28;20681;-64
2022/06/15 08:49:10;;;;;;;1.10;1.10;;;25.60;99.90;;;;;;5071864;28;20240;-65
2022/06/15 08:51:39;;;;;;;1.17;1.17;;;25.60;99.90;;;;;;5072023;28;20290;-63
2022/06/15 08:54:10;;;;;;;1.00;1.00;;;25.50;99.90;;;;;;5071486;28;20254;-63
2022/06/15 08:56:43;;;;;;;1.10;1.10;;;25.90;99.90;;;;;;5071049;28;20211;-64
2022/06/15 08:59:19;;;;;;;1.17;1.13;;;26.00;99.90;;;;;;5071556;28;20199;-65
2022/06/15 09:01:53;;;;;;;2.25;1.40;;;25.90;99.90;;;;;;5071827;28;20213;-64
2022/06/15 09:04:31;;;;;;;1.10;1.10;;;26.10;99.90;;;;;;5072259;28;20310;-64
2022/06/15 09:07:10;;;;;;;0.93;0.93;;;26.10;99.90;;;;;;5071350;28;20226;-64
2022/06/15 09:09:48;;;;;;;1.30;1.30;;;26.40;99.90;;;;;;5067310;28;20210;-63
2022/06/15 09:15:31;;;;;;;0.90;0.90;;;26.60;99.90;;;;;;5063580;28;20225;-63
2022/06/15 09:18:02;;;;;;;1.10;1.10;;;26.50;99.90;;;;;;5071519;28;20210;-64
2022/06/15 09:20:34;;;;;;;1.40;1.30;;;26.40;99.90;;;;;;5069790;28;20583;-65
2022/06/15 09:23:06;;;;;;;1.40;1.30;;;26.60;99.90;;;;;;5071690;28;20246;-65
2022/06/15 09:25:39;;;;;;;1.20;1.20;;;26.60;99.90;;;;;;5071122;28;20250;-64
2022/06/15 09:28:12;;;;;;;1.45;1.10;;;26.60;99.90;;;;;;5071774;28;20295;-64
2022/06/15 09:30:42;;;;;;;1.02;1.02;;;26.80;99.90;;;;;;5073490;28;20685;-63
2022/06/15 09:33:16;;;;;;;1.10;1.10;;;27.00;99.90;;;;;;5075464;28;20207;-63
2022/06/15 09:35:47;;;;;;;1.17;1.17;;;27.00;99.90;;;;;;5074724;28;20569;-63
2022/06/15 09:38:15;;;;;;;1.13;1.10;;;26.90;99.90;;;;;;5069884;28;20199;-62
2022/06/15 09:40:49;;;;;;;1.00;1.00;;;27.10;99.90;;;;;;5075415;28;20294;-64
2022/06/15 09:43:27;;;;;;;0.90;0.90;;;27.40;99.90;;;;;;5069107;28;20227;-63
2022/06/15 09:46:06;;;;;;;1.55;1.30;;;27.40;99.90;;;;;;5065015;28;20223;-65
2022/06/15 09:48:42;;;;;;;1.27;1.17;;;27.50;99.90;;;;;;5069939;28;20203;-63
2022/06/15 09:51:15;;;;;;;1.17;1.17;;;27.60;99.90;;;;;;5065026;28;20209;-63
2022/06/15 09:53:48;;;;;;;1.20;1.10;;;27.60;99.90;;;;;;5070738;28;20207;-62
2022/06/15 09:56:18;;;;;;;1.00;1.00;;;27.70;99.90;;;;;;5070737;28;20196;-62
2022/06/15 09:58:51;;;;;;;1.02;1.02;;;27.70;99.90;;;;;;5065844;28;20311;-63
2022/06/15 10:01:20;;;;;;;1.15;1.13;;;27.80;99.90;;;;;;5088922;28;20192;-63
2022/06/15 10:03:52;;;;;;;1.00;1.00;;;28.00;99.90;;;;;;5072433;28;20257;-65
2022/06/15 10:06:25;;;;;;;1.38;1.27;;;28.20;99.90;;;;;;5074807;28;20257;-64
2022/06/15 10:08:52;;;;;;;1.25;1.20;;;28.50;99.90;;;;;;5061273;28;20200;-62
2022/06/15 10:11:25;;;;;;;1.10;1.10;;;28.50;99.90;;;;;;5066863;28;20294;-63
2022/06/15 10:13:52;;;;;;;1.25;1.17;;;28.40;99.90;;;;;;5059420;28;20311;-63
2022/06/15 10:16:26;;;;;;;2.70;1.30;;;28.30;99.90;;;;;;5065786;28;20245;-62
2022/06/15 10:18:55;;;;;;;2.00;1.30;;;28.20;99.90;;;;;;5057146;28;20211;-62
2022/06/15 10:21:26;;;;;;;1.20;1.10;;;28.40;99.90;;;;;;5066628;28;20203;-65
2022/06/15 10:24:02;;;;;;;1.23;1.10;;;28.50;99.90;;;;;;5065307;28;20310;-63
2022/06/15 10:26:37;;;;;;;1.13;1.13;;;28.60;99.90;;;;;;5063352;28;20226;-64
2022/06/15 10:29:23;;;;;;;2.38;1.30;;;28.70;99.90;;;;;;5063979;28;20237;-63
2022/06/15 10:32:16;;;;;;;0.95;0.95;;;28.70;99.90;;;;;;5074113;28;20295;-63
2022/06/15 10:35:12;;;;;;;1.00;1.00;;;28.90;99.90;;;;;;5075589;28;20259;-63
2022/06/15 10:37:45;;;;;;;1.15;1.10;;;29.20;99.90;;;;;;5057928;28;20206;-63
2022/06/15 10:40:24;;;;;;;1.25;1.15;;;29.50;99.90;;;;;;5075271;28;20207;-63
2022/06/15 10:42:54;;;;;;;1.17;1.17;;;29.50;99.90;;;;;;5074407;28;20563;-65
2022/06/15 10:45:24;;;;;;;1.80;1.13;;;29.60;99.90;;;;;;5076515;28;20301;-63
2022/06/15 10:47:58;;;;;;;1.10;1.10;;;29.70;99.90;;;;;;5080466;28;20346;-65
2022/06/15 10:50:28;;;;;;;2.55;1.25;;;29.70;99.90;;;;;;5076145;28;20352;-64
2022/06/15 10:52:59;;;;;;;1.00;1.00;;;29.70;99.90;;;;;;5074934;28;20203;-64
2022/06/15 11:04:15;;;;;;;0.80;0.80;;;30.10;99.90;;;;;;5073382;28;21016;-64
2022/06/15 11:06:47;;;;;;;0.90;0.90;;;30.20;99.90;;;;;;5073094;28;20215;-63
2022/06/15 11:09:27;;;;;;;1.00;1.00;;;30.20;99.90;;;;;;5072050;28;20282;-63
2022/06/15 11:11:55;;;;;;;0.80;0.80;;;30.30;99.90;;;;;;5074430;28;20210;-63
2022/06/15 11:14:27;;;;;;;0.93;0.93;;;30.50;99.90;;;;;;5073666;28;20262;-63
2022/06/15 11:19:57;;;;;;;1.50;1.30;;;30.50;99.90;;;;;;5068984;28;20688;-63
2022/06/15 11:22:26;;;;;;;1.00;1.00;;;30.50;99.90;;;;;;5072995;28;20607;-63
2022/06/15 11:25:00;;;;;;;0.88;0.88;;;30.10;99.90;;;;;;5072824;28;20645;-63
2022/06/15 11:27:33;;;;;;;1.40;1.05;;;30.10;98.60;;;;;;5075805;28;20264;-63
2022/06/15 11:30:06;;;;;;;0.77;0.77;;;30.30;99.00;;;;;;5078999;28;20211;-64
2022/06/15 11:32:39;;;;;;;0.90;0.90;;;30.50;99.10;;;;;;5081511;28;20223;-63
2022/06/15 11:35:33;;;;;;;1.27;1.02;;;30.70;99.50;;;;;;5075839;28;20253;-64
2022/06/15 11:38:10;;;;;;;0.70;0.70;;;30.80;98.90;;;;;;5070311;28;20213;-64
2022/06/15 11:40:41;;;;;;;1.10;1.00;;;30.80;99.20;;;;;;5068303;28;20203;-63
2022/06/15 11:43:16;;;;;;;0.90;0.90;;;30.60;96.50;;;;;;5073422;28;20203;-63
2022/06/15 11:46:00;;;;;;;1.00;1.00;;;30.50;97.30;;;;;;5069162;28;20226;-63
2022/06/15 11:48:44;;;;;;;0.82;0.82;;;30.30;96.30;;;;;;5068559;28;20592;-62
2022/06/15 11:51:23;;;;;;;0.80;0.80;;;30.40;96.30;;;;;;5078737;28;20286;-64
2022/06/15 11:54:03;;;;;;;0.70;0.70;;;30.50;96.90;;;;;;5073232;28;20203;-66
2022/06/15 11:56:37;;;;;;;0.82;0.82;;;30.60;96.70;;;;;;5072896;28;20223;-64
2022/06/15 11:59:11;;;;;;;0.80;0.80;;;30.70;95.70;;;;;;5072710;28;20199;-65
2022/06/15 12:01:45;;;;;;;0.90;0.90;;;30.80;95.80;;;;;;5073021;28;20568;-64
2022/06/15 12:04:28;;;;;;;0.80;0.80;;;30.80;95.00;;;;;;5071103;28;20705;-64
2022/06/15 12:07:06;;;;;;;0.60;0.60;;;30.90;95.40;;;;;;5071313;28;20365;-64
2022/06/15 12:09:45;;;;;;;0.80;0.80;;;31.20;94.30;;;;;;5067651;28;20210;-64
2022/06/15 12:12:39;;;;;;;0.80;0.80;;;31.20;93.10;;;;;;5067046;28;20289;-64
2022/06/15 12:15:23;;;;;;;0.80;0.80;;;31.20;92.50;;;;;;5071413;28;20234;-63
2022/06/15 12:17:56;;;;;;;0.80;0.80;;;31.10;91.60;;;;;;5072355;28;20203;-64
2022/06/15 12:20:37;;;;;;;0.80;0.80;;;31.30;93.20;;;;;;5070221;28;20239;-64
2022/06/15 12:23:16;;;;;;;0.90;0.90;;;31.40;91.80;;;;;;5072742;28;20657;-62
2022/06/15 12:26:00;;;;;;;0.90;0.90;;;31.30;88.90;;;;;;5072700;28;20227;-63
2022/06/15 12:28:36;;;;;;;0.70;0.70;;;31.00;90.30;;;;;;5067022;28;20258;-64
2022/06/15 12:31:10;;;;;;;1.08;0.80;;;31.10;91.40;;;;;;5072466;28;20257;-63
2022/06/15 12:33:41;;;;;;;1.05;0.95;;;31.10;90.90;;;;;;5073517;28;20203;-63
2022/06/15 12:36:15;;;;;;;0.80;0.80;;;31.10;90.60;;;;;;5071831;28;20701;-63
2022/06/15 12:38:55;;;;;;;0.85;0.85;;;31.20;91.10;;;;;;5072468;28;20803;-64
2022/06/15 12:44:17;;;;;;;0.82;0.82;;;31.40;89.30;;;;;;5071507;28;20225;-64
2022/06/15 12:46:45;;;;;;;0.88;0.88;;;31.50;90.50;;;;;;5071045;28;20223;-64
2022/06/15 12:49:25;;;;;;;1.00;1.00;;;31.60;91.90;;;;;;5064084;28;20225;-64
2022/06/15 12:51:59;;;;;;;1.10;1.00;;;31.60;91.00;;;;;;5073289;28;20638;-65
2022/06/15 12:54:38;;;;;;;1.05;1.05;;;31.40;91.90;;;;;;5073262;28;20741;-63
2022/06/15 12:57:10;;;;;;;0.90;0.90;;;31.50;92.90;;;;;;5071946;28;20276;-63
2022/06/15 12:59:48;;;;;;;1.08;0.98;;;31.70;92.60;;;;;;5072785;28;20207;-64
2022/06/15 13:02:19;;;;;;;0.70;0.70;;;31.80;92.40;;;;;;5068556;28;20230;-62
2022/06/15 13:04:59;;;;;;;0.80;0.80;;;31.80;92.10;;;;;;5072877;28;20266;-65
2022/06/15 13:07:28;;;;;;;0.95;0.95;;;31.80;91.80;;;;;;5072897;28;20219;-63
2022/06/15 13:10:24;;;;;;;1.15;0.90;;;31.70;92.20;;;;;;5075852;28;20252;-64
2022/06/15 13:12:55;;;;;;;0.90;0.90;;;31.80;92.90;;;;;;5077200;28;20206;-63
2022/06/15 13:15:28;;;;;;;0.90;0.90;;;31.90;93.00;;;;;;5066994;22;20229;-68
2022/06/15 13:18:08;;;;;;;1.35;1.25;;;32.00;92.40;;;;;;5042378;28;20215;-68
2022/06/15 13:21:02;;;;;;;0.98;0.95;;;32.10;92.70;;;;;;5047164;28;20207;-67
2022/06/15 13:23:33;;;;;;;1.15;1.10;;;32.00;91.30;;;;;;5048970;28;20295;-67
2022/06/15 13:26:06;;;;;;;0.90;0.90;;;32.10;92.00;;;;;;5032295;28;20296;-66
2022/06/15 13:28:35;;;;;;;0.93;0.93;;;31.90;91.60;;;;;;5033633;28;20314;-67
2022/06/15 13:31:05;;;;;;;0.98;0.98;;;31.80;91.40;;;;;;5033707;28;20216;-66
2022/06/15 13:33:59;;;;;;;0.73;0.73;;;31.90;91.20;;;;;;5034023;28;20204;-66